sensor_id;sensor_type;location;lat;lon;timestamp;P1;durP1;ratioP1;P2;durP2;ratioP2
10904;SDS011;5505;51.450;9.254;2023-02-20T00:02:46;9.17;;;8.27;;
10904;SDS011;5505;51.450;9.254;2023-02-20T00:05:34;10.70;;;9.60;;
10904;SDS011;5505;51.450;9.254;2023-02-20T00:08:21;11.13;;;9.43;;
10904;SDS011;5505;51.450;9.254;2023-02-20T00:11:08;14.40;;;11.53;;
10904;SDS011;5505;51.450;9.254;2023-02-20T00:13:55;10.43;;;9.17;;
10904;SDS011;5505;51.450;9.254;2023-02-20T00:16:44;11.63;;;10.43;;
10904;SDS011;5505;51.450;9.254;2023-02-20T00:19:31;10.77;;;9.53;;
10904;SDS011;5505;51.450;9.254;2023-02-20T00:22:21;10.47;;;9.20;;
10904;SDS011;5505;51.450;9.254;2023-02-20T00:25:08;12.43;;;9.93;;
10904;SDS011;5505;51.450;9.254;2023-02-20T00:27:55;11.00;;;9.90;;
10904;SDS011;5505;51.450;9.254;2023-02-20T00:30:42;12.33;;;11.07;;
10904;SDS011;5505;51.450;9.254;2023-02-20T00:33:29;11.10;;;9.80;;
10904;SDS011;5505;51.450;9.254;2023-02-20T00:36:16;11.53;;;10.33;;
10904;SDS011;5505;51.450;9.254;2023-02-20T00:39:06;11.77;;;10.13;;
10904;SDS011;5505;51.450;9.254;2023-02-20T00:41:53;10.57;;;9.43;;
10904;SDS011;5505;51.450;9.254;2023-02-20T00:44:40;13.73;;;11.30;;
10904;SDS011;5505;51.450;9.254;2023-02-20T00:47:27;11.37;;;10.10;;
10904;SDS011;5505;51.450;9.254;2023-02-20T00:50:14;12.83;;;10.83;;
10904;SDS011;5505;51.450;9.254;2023-02-20T00:53:02;12.37;;;11.07;;
10904;SDS011;5505;51.450;9.254;2023-02-20T00:55:50;14.70;;;12.23;;
10904;SDS011;5505;51.450;9.254;2023-02-20T00:58:37;13.17;;;11.77;;
10904;SDS011;5505;51.450;9.254;2023-02-20T01:01:24;14.53;;;12.43;;
10904;SDS011;5505;51.450;9.254;2023-02-20T01:04:11;14.10;;;12.03;;
10904;SDS011;5505;51.450;9.254;2023-02-20T01:06:58;14.73;;;12.47;;
10904;SDS011;5505;51.450;9.254;2023-02-20T01:09:44;14.40;;;12.70;;
10904;SDS011;5505;51.450;9.254;2023-02-20T01:12:32;14.47;;;12.37;;
10904;SDS011;5505;51.450;9.254;2023-02-20T01:15:19;13.43;;;12.03;;
10904;SDS011;5505;51.450;9.254;2023-02-20T01:18:06;13.43;;;12.03;;
10904;SDS011;5505;51.450;9.254;2023-02-20T01:20:53;14.47;;;12.40;;
10904;SDS011;5505;51.450;9.254;2023-02-20T01:23:40;13.70;;;11.73;;
10904;SDS011;5505;51.450;9.254;2023-02-20T01:26:27;13.17;;;11.50;;
10904;SDS011;5505;51.450;9.254;2023-02-20T01:29:15;14.87;;;11.97;;
10904;SDS011;5505;51.450;9.254;2023-02-20T01:32:03;11.90;;;10.70;;
10904;SDS011;5505;51.450;9.254;2023-02-20T01:34:50;11.60;;;10.17;;
10904;SDS011;5505;51.450;9.254;2023-02-20T01:37:36;11.73;;;10.53;;
10904;SDS011;5505;51.450;9.254;2023-02-20T01:40:24;11.67;;;9.60;;
10904;SDS011;5505;51.450;9.254;2023-02-20T01:43:12;10.53;;;9.43;;
10904;SDS011;5505;51.450;9.254;2023-02-20T01:49:22;14.40;;;9.20;;
10904;SDS011;5505;51.450;9.254;2023-02-20T01:52:13;10.33;;;8.90;;
10904;SDS011;5505;51.450;9.254;2023-02-20T01:55:03;9.77;;;8.17;;
10904;SDS011;5505;51.450;9.254;2023-02-20T01:57:54;8.70;;;7.90;;
10904;SDS011;5505;51.450;9.254;2023-02-20T02:00:44;7.33;;;6.63;;
10904;SDS011;5505;51.450;9.254;2023-02-20T02:03:32;6.70;;;6.10;;
10904;SDS011;5505;51.450;9.254;2023-02-20T02:06:23;7.90;;;6.50;;
10904;SDS011;5505;51.450;9.254;2023-02-20T02:09:12;7.80;;;7.00;;
10904;SDS011;5505;51.450;9.254;2023-02-20T02:12:06;7.23;;;6.53;;
10904;SDS011;5505;51.450;9.254;2023-02-20T02:14:54;6.70;;;6.10;;
10904;SDS011;5505;51.450;9.254;2023-02-20T02:17:45;8.53;;;7.30;;
10904;SDS011;5505;51.450;9.254;2023-02-20T02:24:31;14.43;;;9.53;;
10904;SDS011;5505;51.450;9.254;2023-02-20T02:27:52;9.97;;;8.10;;
10904;SDS011;5505;51.450;9.254;2023-02-20T02:34:43;47.33;;;27.07;;
10904;SDS011;5505;51.450;9.254;2023-02-20T02:38:01;43.67;;;23.57;;
10904;SDS011;5505;51.450;9.254;2023-02-20T02:41:02;22.70;;;14.57;;
10904;SDS011;5505;51.450;9.254;2023-02-20T02:43:54;15.00;;;9.30;;
10904;SDS011;5505;51.450;9.254;2023-02-20T02:46:47;14.03;;;9.50;;
10904;SDS011;5505;51.450;9.254;2023-02-20T02:49:45;7.97;;;6.77;;
10904;SDS011;5505;51.450;9.254;2023-02-20T02:52:36;6.43;;;5.83;;
10904;SDS011;5505;51.450;9.254;2023-02-20T02:55:32;31.40;;;20.17;;
10904;SDS011;5505;51.450;9.254;2023-02-20T02:58:18;11.00;;;8.97;;
10904;SDS011;5505;51.450;9.254;2023-02-20T03:01:05;19.33;;;15.30;;
10904;SDS011;5505;51.450;9.254;2023-02-20T03:03:53;33.13;;;24.53;;
10904;SDS011;5505;51.450;9.254;2023-02-20T03:06:43;10.27;;;8.87;;
10904;SDS011;5505;51.450;9.254;2023-02-20T03:09:34;9.47;;;8.27;;
10904;SDS011;5505;51.450;9.254;2023-02-20T03:12:25;9.63;;;8.63;;
10904;SDS011;5505;51.450;9.254;2023-02-20T03:15:13;7.10;;;5.73;;
10904;SDS011;5505;51.450;9.254;2023-02-20T03:18:19;6.23;;;5.60;;
10904;SDS011;5505;51.450;9.254;2023-02-20T03:21:14;6.00;;;5.40;;
10904;SDS011;5505;51.450;9.254;2023-02-20T03:24:04;5.67;;;5.07;;
10904;SDS011;5505;51.450;9.254;2023-02-20T03:26:51;6.00;;;5.40;;
10904;SDS011;5505;51.450;9.254;2023-02-20T03:29:41;13.67;;;10.80;;
10904;SDS011;5505;51.450;9.254;2023-02-20T03:32:28;6.20;;;5.60;;
10904;SDS011;5505;51.450;9.254;2023-02-20T03:35:34;27.60;;;18.27;;
10904;SDS011;5505;51.450;9.254;2023-02-20T03:38:43;19.17;;;13.37;;
10904;SDS011;5505;51.450;9.254;2023-02-20T03:41:53;13.13;;;9.50;;
10904;SDS011;5505;51.450;9.254;2023-02-20T03:45:01;5.43;;;4.70;;
10904;SDS011;5505;51.450;9.254;2023-02-20T03:47:51;5.97;;;5.37;;
10904;SDS011;5505;51.450;9.254;2023-02-20T03:50:42;4.53;;;4.13;;
10904;SDS011;5505;51.450;9.254;2023-02-20T03:53:30;4.83;;;4.43;;
10904;SDS011;5505;51.450;9.254;2023-02-20T03:56:17;5.67;;;5.13;;
10904;SDS011;5505;51.450;9.254;2023-02-20T03:59:08;6.40;;;5.73;;
10904;SDS011;5505;51.450;9.254;2023-02-20T04:02:03;6.20;;;5.60;;
10904;SDS011;5505;51.450;9.254;2023-02-20T04:04:55;9.57;;;7.00;;
10904;SDS011;5505;51.450;9.254;2023-02-20T04:07:46;6.77;;;6.00;;
10904;SDS011;5505;51.450;9.254;2023-02-20T04:10:37;7.17;;;6.47;;
10904;SDS011;5505;51.450;9.254;2023-02-20T04:13:28;8.23;;;7.40;;
10904;SDS011;5505;51.450;9.254;2023-02-20T04:16:17;11.37;;;9.17;;
10904;SDS011;5505;51.450;9.254;2023-02-20T04:19:06;10.67;;;9.10;;
10904;SDS011;5505;51.450;9.254;2023-02-20T04:21:53;9.33;;;7.90;;
10904;SDS011;5505;51.450;9.254;2023-02-20T04:24:43;16.10;;;12.30;;
10904;SDS011;5505;51.450;9.254;2023-02-20T04:27:34;12.27;;;10.27;;
10904;SDS011;5505;51.450;9.254;2023-02-20T04:30:21;14.33;;;9.80;;
10904;SDS011;5505;51.450;9.254;2023-02-20T04:33:09;10.00;;;7.77;;
10904;SDS011;5505;51.450;9.254;2023-02-20T04:35:58;15.80;;;12.10;;
10904;SDS011;5505;51.450;9.254;2023-02-20T04:38:46;14.00;;;10.07;;
10904;SDS011;5505;51.450;9.254;2023-02-20T04:41:32;12.43;;;9.97;;
10904;SDS011;5505;51.450;9.254;2023-02-20T04:44:19;13.60;;;10.93;;
10904;SDS011;5505;51.450;9.254;2023-02-20T04:47:19;9.37;;;8.13;;
10904;SDS011;5505;51.450;9.254;2023-02-20T04:50:06;17.70;;;13.57;;
10904;SDS011;5505;51.450;9.254;2023-02-20T04:52:55;12.10;;;8.47;;
10904;SDS011;5505;51.450;9.254;2023-02-20T04:55:42;11.63;;;8.80;;
10904;SDS011;5505;51.450;9.254;2023-02-20T04:58:29;10.60;;;8.80;;
10904;SDS011;5505;51.450;9.254;2023-02-20T05:01:18;12.63;;;10.33;;
10904;SDS011;5505;51.450;9.254;2023-02-20T05:04:04;11.17;;;9.07;;
10904;SDS011;5505;51.450;9.254;2023-02-20T05:06:52;10.10;;;9.00;;
10904;SDS011;5505;51.450;9.254;2023-02-20T05:09:43;12.83;;;9.80;;
10904;SDS011;5505;51.450;9.254;2023-02-20T05:12:29;11.17;;;9.30;;
10904;SDS011;5505;51.450;9.254;2023-02-20T05:15:16;12.43;;;10.67;;
10904;SDS011;5505;51.450;9.254;2023-02-20T05:18:03;13.20;;;10.07;;
10904;SDS011;5505;51.450;9.254;2023-02-20T05:20:50;11.57;;;9.67;;
10904;SDS011;5505;51.450;9.254;2023-02-20T05:23:54;12.30;;;9.73;;
10904;SDS011;5505;51.450;9.254;2023-02-20T05:26:42;11.60;;;9.80;;
10904;SDS011;5505;51.450;9.254;2023-02-20T05:29:29;12.43;;;10.17;;
10904;SDS011;5505;51.450;9.254;2023-02-20T05:32:16;12.47;;;10.83;;
10904;SDS011;5505;51.450;9.254;2023-02-20T05:35:04;11.87;;;10.07;;
10904;SDS011;5505;51.450;9.254;2023-02-20T05:37:51;12.40;;;10.33;;
10904;SDS011;5505;51.450;9.254;2023-02-20T05:40:38;12.87;;;10.20;;
10904;SDS011;5505;51.450;9.254;2023-02-20T05:43:26;15.93;;;11.17;;
10904;SDS011;5505;51.450;9.254;2023-02-20T05:46:13;12.80;;;10.13;;
10904;SDS011;5505;51.450;9.254;2023-02-20T05:48:59;15.43;;;10.97;;
10904;SDS011;5505;51.450;9.254;2023-02-20T05:51:46;14.47;;;10.73;;
10904;SDS011;5505;51.450;9.254;2023-02-20T05:54:34;13.10;;;10.80;;
10904;SDS011;5505;51.450;9.254;2023-02-20T05:57:21;12.23;;;10.93;;
10904;SDS011;5505;51.450;9.254;2023-02-20T06:00:10;12.80;;;10.53;;
10904;SDS011;5505;51.450;9.254;2023-02-20T06:02:57;16.37;;;11.00;;
10904;SDS011;5505;51.450;9.254;2023-02-20T06:05:44;14.23;;;11.27;;
10904;SDS011;5505;51.450;9.254;2023-02-20T06:08:31;13.23;;;11.30;;
10904;SDS011;5505;51.450;9.254;2023-02-20T06:11:18;15.10;;;12.20;;
10904;SDS011;5505;51.450;9.254;2023-02-20T06:14:05;14.97;;;11.33;;
10904;SDS011;5505;51.450;9.254;2023-02-20T06:16:55;12.53;;;11.33;;
10904;SDS011;5505;51.450;9.254;2023-02-20T06:19:42;16.63;;;11.80;;
10904;SDS011;5505;51.450;9.254;2023-02-20T06:22:28;13.90;;;12.13;;
10904;SDS011;5505;51.450;9.254;2023-02-20T06:25:15;14.90;;;11.57;;
10904;SDS011;5505;51.450;9.254;2023-02-20T06:28:02;14.97;;;11.53;;
10904;SDS011;5505;51.450;9.254;2023-02-20T06:30:49;14.43;;;11.50;;
10904;SDS011;5505;51.450;9.254;2023-02-20T06:33:37;18.00;;;13.77;;
10904;SDS011;5505;51.450;9.254;2023-02-20T06:36:25;15.80;;;11.57;;
10904;SDS011;5505;51.450;9.254;2023-02-20T06:39:13;13.80;;;11.40;;
10904;SDS011;5505;51.450;9.254;2023-02-20T06:42:00;14.93;;;11.40;;
10904;SDS011;5505;51.450;9.254;2023-02-20T06:44:47;12.10;;;10.57;;
10904;SDS011;5505;51.450;9.254;2023-02-20T06:47:34;11.53;;;10.30;;
10904;SDS011;5505;51.450;9.254;2023-02-20T06:50:22;12.07;;;10.33;;
10904;SDS011;5505;51.450;9.254;2023-02-20T06:53:09;10.73;;;9.47;;
10904;SDS011;5505;51.450;9.254;2023-02-20T06:55:55;10.07;;;9.00;;
10904;SDS011;5505;51.450;9.254;2023-02-20T06:58:42;12.50;;;9.23;;
10904;SDS011;5505;51.450;9.254;2023-02-20T07:01:30;10.70;;;8.93;;
10904;SDS011;5505;51.450;9.254;2023-02-20T07:04:25;9.07;;;8.17;;
10904;SDS011;5505;51.450;9.254;2023-02-20T07:07:13;10.77;;;8.13;;
10904;SDS011;5505;51.450;9.254;2023-02-20T07:10:00;10.57;;;8.40;;
10904;SDS011;5505;51.450;9.254;2023-02-20T07:12:47;9.60;;;8.60;;
10904;SDS011;5505;51.450;9.254;2023-02-20T07:15:33;10.43;;;7.80;;
10904;SDS011;5505;51.450;9.254;2023-02-20T07:18:20;8.83;;;7.93;;
10904;SDS011;5505;51.450;9.254;2023-02-20T07:21:08;10.07;;;7.67;;
10904;SDS011;5505;51.450;9.254;2023-02-20T07:23:56;7.30;;;6.47;;
10904;SDS011;5505;51.450;9.254;2023-02-20T07:26:43;6.87;;;6.17;;
10904;SDS011;5505;51.450;9.254;2023-02-20T07:29:29;7.33;;;5.50;;
10904;SDS011;5505;51.450;9.254;2023-02-20T07:32:16;8.80;;;5.40;;
10904;SDS011;5505;51.450;9.254;2023-02-20T07:35:04;5.80;;;5.13;;
10904;SDS011;5505;51.450;9.254;2023-02-20T07:37:52;6.43;;;5.10;;
10904;SDS011;5505;51.450;9.254;2023-02-20T07:40:40;5.60;;;4.90;;
10904;SDS011;5505;51.450;9.254;2023-02-20T07:43:26;6.43;;;5.10;;
10904;SDS011;5505;51.450;9.254;2023-02-20T07:46:13;5.37;;;4.40;;
10904;SDS011;5505;51.450;9.254;2023-02-20T07:49:00;6.10;;;3.97;;
10904;SDS011;5505;51.450;9.254;2023-02-20T07:51:48;5.90;;;3.90;;
10904;SDS011;5505;51.450;9.254;2023-02-20T07:54:35;5.27;;;3.50;;
10904;SDS011;5505;51.450;9.254;2023-02-20T07:57:23;3.90;;;3.30;;
10904;SDS011;5505;51.450;9.254;2023-02-20T08:00:12;4.37;;;3.10;;
10904;SDS011;5505;51.450;9.254;2023-02-20T08:02:59;5.63;;;3.10;;
10904;SDS011;5505;51.450;9.254;2023-02-20T08:05:46;5.10;;;2.90;;
10904;SDS011;5505;51.450;9.254;2023-02-20T08:08:33;6.37;;;3.03;;
10904;SDS011;5505;51.450;9.254;2023-02-20T08:11:20;3.47;;;2.80;;
10904;SDS011;5505;51.450;9.254;2023-02-20T08:14:09;3.10;;;2.43;;
10904;SDS011;5505;51.450;9.254;2023-02-20T08:16:58;3.13;;;2.73;;
10904;SDS011;5505;51.450;9.254;2023-02-20T08:19:45;3.73;;;2.70;;
10904;SDS011;5505;51.450;9.254;2023-02-20T08:22:31;3.87;;;2.60;;
10904;SDS011;5505;51.450;9.254;2023-02-20T08:25:18;3.50;;;2.73;;
10904;SDS011;5505;51.450;9.254;2023-02-20T08:28:05;4.90;;;2.93;;
10904;SDS011;5505;51.450;9.254;2023-02-20T08:30:53;3.63;;;2.50;;
10904;SDS011;5505;51.450;9.254;2023-02-20T08:33:40;4.47;;;2.90;;
10904;SDS011;5505;51.450;9.254;2023-02-20T08:36:27;5.23;;;2.50;;
10904;SDS011;5505;51.450;9.254;2023-02-20T08:39:14;3.73;;;2.43;;
10904;SDS011;5505;51.450;9.254;2023-02-20T08:42:01;5.00;;;2.47;;
10904;SDS011;5505;51.450;9.254;2023-02-20T08:44:48;3.23;;;2.43;;
10904;SDS011;5505;51.450;9.254;2023-02-20T08:47:36;4.47;;;2.50;;
10904;SDS011;5505;51.450;9.254;2023-02-20T08:50:23;3.63;;;2.27;;
10904;SDS011;5505;51.450;9.254;2023-02-20T08:53:09;6.30;;;2.63;;
10904;SDS011;5505;51.450;9.254;2023-02-20T08:55:56;3.07;;;2.20;;
10904;SDS011;5505;51.450;9.254;2023-02-20T08:58:43;3.00;;;2.20;;
10904;SDS011;5505;51.450;9.254;2023-02-20T09:01:30;4.83;;;2.23;;
10904;SDS011;5505;51.450;9.254;2023-02-20T09:04:18;3.87;;;2.10;;
10904;SDS011;5505;51.450;9.254;2023-02-20T09:07:06;2.33;;;2.03;;
10904;SDS011;5505;51.450;9.254;2023-02-20T09:09:52;3.03;;;1.80;;
10904;SDS011;5505;51.450;9.254;2023-02-20T09:12:39;4.30;;;1.87;;
10904;SDS011;5505;51.450;9.254;2023-02-20T09:15:26;2.70;;;1.90;;
10904;SDS011;5505;51.450;9.254;2023-02-20T09:18:14;3.67;;;2.20;;
10904;SDS011;5505;51.450;9.254;2023-02-20T09:21:02;2.10;;;1.83;;
10904;SDS011;5505;51.450;9.254;2023-02-20T09:23:49;2.83;;;1.43;;
10904;SDS011;5505;51.450;9.254;2023-02-20T09:26:36;1.90;;;1.70;;
10904;SDS011;5505;51.450;9.254;2023-02-20T09:29:22;2.00;;;1.80;;
10904;SDS011;5505;51.450;9.254;2023-02-20T09:32:09;2.13;;;1.60;;
10904;SDS011;5505;51.450;9.254;2023-02-20T09:34:56;1.87;;;1.47;;
10904;SDS011;5505;51.450;9.254;2023-02-20T09:37:45;3.33;;;3.03;;
10904;SDS011;5505;51.450;9.254;2023-02-20T09:40:31;3.20;;;1.80;;
10904;SDS011;5505;51.450;9.254;2023-02-20T09:43:21;2.67;;;1.70;;
10904;SDS011;5505;51.450;9.254;2023-02-20T09:46:14;2.40;;;1.83;;
10904;SDS011;5505;51.450;9.254;2023-02-20T09:49:04;5.83;;;1.90;;
10904;SDS011;5505;51.450;9.254;2023-02-20T09:51:58;4.03;;;1.80;;
10904;SDS011;5505;51.450;9.254;2023-02-20T09:54:50;4.33;;;1.90;;
10904;SDS011;5505;51.450;9.254;2023-02-20T09:57:39;3.93;;;2.00;;
10904;SDS011;5505;51.450;9.254;2023-02-20T10:00:28;2.20;;;1.40;;
10904;SDS011;5505;51.450;9.254;2023-02-20T10:03:21;2.70;;;1.50;;
10904;SDS011;5505;51.450;9.254;2023-02-20T10:06:15;1.93;;;1.63;;
10904;SDS011;5505;51.450;9.254;2023-02-20T10:09:05;3.43;;;1.63;;
10904;SDS011;5505;51.450;9.254;2023-02-20T10:12:06;2.80;;;1.80;;
10904;SDS011;5505;51.450;9.254;2023-02-20T10:15:06;3.83;;;1.57;;
10904;SDS011;5505;51.450;9.254;2023-02-20T10:18:03;2.93;;;1.43;;
10904;SDS011;5505;51.450;9.254;2023-02-20T10:21:00;4.00;;;1.70;;
10904;SDS011;5505;51.450;9.254;2023-02-20T10:23:54;2.97;;;1.93;;
10904;SDS011;5505;51.450;9.254;2023-02-20T10:26:45;1.97;;;1.40;;
10904;SDS011;5505;51.450;9.254;2023-02-20T10:29:36;3.67;;;1.60;;
10904;SDS011;5505;51.450;9.254;2023-02-20T10:32:26;2.63;;;1.47;;
10904;SDS011;5505;51.450;9.254;2023-02-20T10:35:17;2.97;;;1.63;;
10904;SDS011;5505;51.450;9.254;2023-02-20T10:38:11;2.40;;;1.70;;
10904;SDS011;5505;51.450;9.254;2023-02-20T10:41:02;2.13;;;1.60;;
10904;SDS011;5505;51.450;9.254;2023-02-20T10:43:58;2.53;;;2.33;;
10904;SDS011;5505;51.450;9.254;2023-02-20T10:46:55;4.47;;;2.57;;
10904;SDS011;5505;51.450;9.254;2023-02-20T10:49:47;2.17;;;1.97;;
10904;SDS011;5505;51.450;9.254;2023-02-20T10:52:38;3.97;;;2.10;;
10904;SDS011;5505;51.450;9.254;2023-02-20T10:55:32;2.60;;;1.87;;
10904;SDS011;5505;51.450;9.254;2023-02-20T10:58:22;2.00;;;1.73;;
10904;SDS011;5505;51.450;9.254;2023-02-20T11:01:17;1.57;;;1.47;;
10904;SDS011;5505;51.450;9.254;2023-02-20T11:04:09;3.63;;;1.60;;
10904;SDS011;5505;51.450;9.254;2023-02-20T11:07:00;2.73;;;1.30;;
10904;SDS011;5505;51.450;9.254;2023-02-20T11:09:49;3.37;;;1.77;;
10904;SDS011;5505;51.450;9.254;2023-02-20T11:12:38;2.40;;;1.50;;
10904;SDS011;5505;51.450;9.254;2023-02-20T11:15:31;3.60;;;1.10;;
10904;SDS011;5505;51.450;9.254;2023-02-20T11:18:22;5.30;;;1.47;;
10904;SDS011;5505;51.450;9.254;2023-02-20T11:21:16;2.23;;;1.13;;
10904;SDS011;5505;51.450;9.254;2023-02-20T11:24:20;1.67;;;1.30;;
10904;SDS011;5505;51.450;9.254;2023-02-20T11:27:18;6.13;;;4.17;;
10904;SDS011;5505;51.450;9.254;2023-02-20T11:30:15;4.07;;;2.10;;
10904;SDS011;5505;51.450;9.254;2023-02-20T11:33:10;3.90;;;2.10;;
10904;SDS011;5505;51.450;9.254;2023-02-20T11:36:08;1.53;;;1.20;;
10904;SDS011;5505;51.450;9.254;2023-02-20T11:38:59;6.33;;;3.53;;
10904;SDS011;5505;51.450;9.254;2023-02-20T11:41:48;1.77;;;1.43;;
10904;SDS011;5505;51.450;9.254;2023-02-20T11:44:36;5.63;;;3.00;;
10904;SDS011;5505;51.450;9.254;2023-02-20T11:47:24;2.77;;;1.80;;
10904;SDS011;5505;51.450;9.254;2023-02-20T11:50:13;3.70;;;1.37;;
10904;SDS011;5505;51.450;9.254;2023-02-20T11:53:03;12.23;;;7.20;;
10904;SDS011;5505;51.450;9.254;2023-02-20T11:56:06;5.07;;;2.30;;
10904;SDS011;5505;51.450;9.254;2023-02-20T11:59:11;1.20;;;1.00;;
10904;SDS011;5505;51.450;9.254;2023-02-20T12:05:21;5.80;;;4.00;;
10904;SDS011;5505;51.450;9.254;2023-02-20T12:08:39;1.93;;;1.47;;
10904;SDS011;5505;51.450;9.254;2023-02-20T12:11:33;2.13;;;1.40;;
10904;SDS011;5505;51.450;9.254;2023-02-20T12:14:20;6.47;;;3.73;;
10904;SDS011;5505;51.450;9.254;2023-02-20T12:17:10;2.33;;;1.60;;
10904;SDS011;5505;51.450;9.254;2023-02-20T12:20:05;3.33;;;2.00;;
10904;SDS011;5505;51.450;9.254;2023-02-20T12:22:59;2.40;;;2.10;;
10904;SDS011;5505;51.450;9.254;2023-02-20T12:25:58;2.50;;;1.70;;
10904;SDS011;5505;51.450;9.254;2023-02-20T12:28:57;9.33;;;5.57;;
10904;SDS011;5505;51.450;9.254;2023-02-20T12:31:56;3.70;;;2.60;;
10904;SDS011;5505;51.450;9.254;2023-02-20T12:34:57;3.83;;;2.70;;
10904;SDS011;5505;51.450;9.254;2023-02-20T12:38:12;2.97;;;2.40;;
10904;SDS011;5505;51.450;9.254;2023-02-20T12:41:20;2.60;;;2.13;;
10904;SDS011;5505;51.450;9.254;2023-02-20T12:44:33;2.03;;;1.83;;
10904;SDS011;5505;51.450;9.254;2023-02-20T12:47:30;3.17;;;2.40;;
10904;SDS011;5505;51.450;9.254;2023-02-20T12:50:29;3.37;;;2.67;;
10904;SDS011;5505;51.450;9.254;2023-02-20T12:53:33;4.63;;;2.53;;
10904;SDS011;5505;51.450;9.254;2023-02-20T12:56:29;7.07;;;4.13;;
10904;SDS011;5505;51.450;9.254;2023-02-20T12:59:26;2.40;;;2.20;;
10904;SDS011;5505;51.450;9.254;2023-02-20T13:02:19;3.30;;;2.50;;
10904;SDS011;5505;51.450;9.254;2023-02-20T13:05:13;3.23;;;2.60;;
10904;SDS011;5505;51.450;9.254;2023-02-20T13:08:06;2.80;;;2.43;;
10904;SDS011;5505;51.450;9.254;2023-02-20T13:10:57;4.93;;;2.90;;
10904;SDS011;5505;51.450;9.254;2023-02-20T13:13:49;3.60;;;2.83;;
10904;SDS011;5505;51.450;9.254;2023-02-20T13:16:48;3.73;;;3.10;;
10904;SDS011;5505;51.450;9.254;2023-02-20T13:19:43;3.40;;;3.07;;
10904;SDS011;5505;51.450;9.254;2023-02-20T13:22:39;3.33;;;3.03;;
10904;SDS011;5505;51.450;9.254;2023-02-20T13:25:30;4.60;;;3.40;;
10904;SDS011;5505;51.450;9.254;2023-02-20T13:28:36;4.03;;;3.47;;
10904;SDS011;5505;51.450;9.254;2023-02-20T13:31:40;5.03;;;4.07;;
10904;SDS011;5505;51.450;9.254;2023-02-20T13:34:32;5.10;;;3.47;;
10904;SDS011;5505;51.450;9.254;2023-02-20T13:40:38;5.10;;;4.30;;
10904;SDS011;5505;51.450;9.254;2023-02-20T13:43:27;6.47;;;5.30;;
10904;SDS011;5505;51.450;9.254;2023-02-20T13:46:17;4.70;;;4.30;;
10904;SDS011;5505;51.450;9.254;2023-02-20T13:49:08;6.23;;;5.00;;
10904;SDS011;5505;51.450;9.254;2023-02-20T13:51:55;6.53;;;5.47;;
10904;SDS011;5505;51.450;9.254;2023-02-20T13:54:44;7.20;;;5.90;;
10904;SDS011;5505;51.450;9.254;2023-02-20T13:57:31;5.83;;;5.20;;
10904;SDS011;5505;51.450;9.254;2023-02-20T14:00:20;6.10;;;5.50;;
10904;SDS011;5505;51.450;9.254;2023-02-20T14:03:17;5.97;;;5.47;;
10904;SDS011;5505;51.450;9.254;2023-02-20T14:06:07;7.27;;;6.47;;
10904;SDS011;5505;51.450;9.254;2023-02-20T14:09:05;7.83;;;6.53;;
10904;SDS011;5505;51.450;9.254;2023-02-20T14:12:00;6.53;;;5.93;;
10904;SDS011;5505;51.450;9.254;2023-02-20T14:14:51;7.03;;;6.17;;
10904;SDS011;5505;51.450;9.254;2023-02-20T14:17:40;7.33;;;6.53;;
10904;SDS011;5505;51.450;9.254;2023-02-20T14:20:31;7.33;;;6.30;;
10904;SDS011;5505;51.450;9.254;2023-02-20T14:23:23;9.13;;;6.97;;
10904;SDS011;5505;51.450;9.254;2023-02-20T14:26:17;7.70;;;6.90;;
10904;SDS011;5505;51.450;9.254;2023-02-20T14:29:18;8.00;;;6.80;;
10904;SDS011;5505;51.450;9.254;2023-02-20T14:32:06;8.10;;;7.30;;
10904;SDS011;5505;51.450;9.254;2023-02-20T14:35:00;8.63;;;7.23;;
10904;SDS011;5505;51.450;9.254;2023-02-20T14:37:57;8.07;;;7.30;;
10904;SDS011;5505;51.450;9.254;2023-02-20T14:40:53;11.00;;;7.57;;
10904;SDS011;5505;51.450;9.254;2023-02-20T14:43:40;8.97;;;7.33;;
10904;SDS011;5505;51.450;9.254;2023-02-20T14:46:28;7.70;;;6.90;;
10904;SDS011;5505;51.450;9.254;2023-02-20T14:49:21;7.17;;;6.47;;
10904;SDS011;5505;51.450;9.254;2023-02-20T14:52:10;8.37;;;6.77;;
10904;SDS011;5505;51.450;9.254;2023-02-20T14:55:00;8.10;;;7.30;;
10904;SDS011;5505;51.450;9.254;2023-02-20T14:57:50;7.80;;;6.60;;
10904;SDS011;5505;51.450;9.254;2023-02-20T15:00:38;7.07;;;6.37;;
10904;SDS011;5505;51.450;9.254;2023-02-20T15:03:28;9.37;;;7.37;;
10904;SDS011;5505;51.450;9.254;2023-02-20T15:06:17;8.27;;;6.70;;
10904;SDS011;5505;51.450;9.254;2023-02-20T15:09:06;8.83;;;7.83;;
10904;SDS011;5505;51.450;9.254;2023-02-20T15:11:55;9.37;;;8.40;;
10904;SDS011;5505;51.450;9.254;2023-02-20T15:14:43;8.87;;;7.50;;
10904;SDS011;5505;51.450;9.254;2023-02-20T15:17:30;9.60;;;8.10;;
10904;SDS011;5505;51.450;9.254;2023-02-20T15:20:20;9.43;;;7.60;;
10904;SDS011;5505;51.450;9.254;2023-02-20T15:23:23;9.50;;;7.57;;
10904;SDS011;5505;51.450;9.254;2023-02-20T15:26:25;8.73;;;7.83;;
10904;SDS011;5505;51.450;9.254;2023-02-20T15:29:18;8.80;;;7.73;;
10904;SDS011;5505;51.450;9.254;2023-02-20T15:32:13;9.77;;;8.10;;
10904;SDS011;5505;51.450;9.254;2023-02-20T15:35:10;8.93;;;7.60;;
10904;SDS011;5505;51.450;9.254;2023-02-20T15:38:01;9.17;;;7.53;;
10904;SDS011;5505;51.450;9.254;2023-02-20T15:40:54;9.80;;;8.80;;
10904;SDS011;5505;51.450;9.254;2023-02-20T15:43:42;10.70;;;8.80;;
10904;SDS011;5505;51.450;9.254;2023-02-20T15:46:29;10.50;;;7.87;;
10904;SDS011;5505;51.450;9.254;2023-02-20T15:49:16;10.00;;;7.73;;
10904;SDS011;5505;51.450;9.254;2023-02-20T15:52:03;9.47;;;7.73;;
10904;SDS011;5505;51.450;9.254;2023-02-20T15:54:53;9.57;;;7.77;;
10904;SDS011;5505;51.450;9.254;2023-02-20T15:57:41;11.97;;;7.90;;
10904;SDS011;5505;51.450;9.254;2023-02-20T16:00:29;9.07;;;7.70;;
10904;SDS011;5505;51.450;9.254;2023-02-20T16:03:17;11.33;;;8.27;;
10904;SDS011;5505;51.450;9.254;2023-02-20T16:06:04;10.17;;;9.00;;
10904;SDS011;5505;51.450;9.254;2023-02-20T16:08:51;13.27;;;10.07;;
10904;SDS011;5505;51.450;9.254;2023-02-20T16:11:40;12.43;;;9.00;;
10904;SDS011;5505;51.450;9.254;2023-02-20T16:14:30;10.63;;;8.83;;
10904;SDS011;5505;51.450;9.254;2023-02-20T16:17:19;12.03;;;8.67;;
10904;SDS011;5505;51.450;9.254;2023-02-20T16:20:12;9.27;;;8.27;;
10904;SDS011;5505;51.450;9.254;2023-02-20T16:23:00;10.17;;;8.07;;
10904;SDS011;5505;51.450;9.254;2023-02-20T16:25:48;10.70;;;8.33;;
10904;SDS011;5505;51.450;9.254;2023-02-20T16:28:37;12.33;;;8.77;;
10904;SDS011;5505;51.450;9.254;2023-02-20T16:31:32;11.40;;;8.40;;
10904;SDS011;5505;51.450;9.254;2023-02-20T16:34:51;10.23;;;8.60;;
10904;SDS011;5505;51.450;9.254;2023-02-20T16:37:39;11.73;;;8.00;;
10904;SDS011;5505;51.450;9.254;2023-02-20T16:40:25;10.43;;;7.43;;
10904;SDS011;5505;51.450;9.254;2023-02-20T16:43:12;8.80;;;7.83;;
10904;SDS011;5505;51.450;9.254;2023-02-20T16:46:01;13.37;;;10.80;;
10904;SDS011;5505;51.450;9.254;2023-02-20T16:48:47;12.07;;;9.57;;
10904;SDS011;5505;51.450;9.254;2023-02-20T16:51:35;10.80;;;8.80;;
10904;SDS011;5505;51.450;9.254;2023-02-20T16:54:21;10.67;;;8.37;;
10904;SDS011;5505;51.450;9.254;2023-02-20T16:57:08;10.90;;;8.97;;
10904;SDS011;5505;51.450;9.254;2023-02-20T16:59:55;13.03;;;9.50;;
10904;SDS011;5505;51.450;9.254;2023-02-20T17:02:45;11.63;;;9.70;;
10904;SDS011;5505;51.450;9.254;2023-02-20T17:05:33;10.73;;;9.30;;
10904;SDS011;5505;51.450;9.254;2023-02-20T17:08:21;11.83;;;8.83;;
10904;SDS011;5505;51.450;9.254;2023-02-20T17:11:08;10.73;;;8.83;;
10904;SDS011;5505;51.450;9.254;2023-02-20T17:13:54;10.37;;;8.83;;
10904;SDS011;5505;51.450;9.254;2023-02-20T17:16:43;10.93;;;8.53;;
10904;SDS011;5505;51.450;9.254;2023-02-20T17:19:36;11.53;;;8.33;;
10904;SDS011;5505;51.450;9.254;2023-02-20T17:22:23;10.83;;;8.57;;
10904;SDS011;5505;51.450;9.254;2023-02-20T17:25:12;9.17;;;7.60;;
10904;SDS011;5505;51.450;9.254;2023-02-20T17:28:00;9.47;;;7.53;;
10904;SDS011;5505;51.450;9.254;2023-02-20T17:30:48;11.23;;;8.40;;
10904;SDS011;5505;51.450;9.254;2023-02-20T17:33:38;10.20;;;7.53;;